Time;durP1;ratioP1;P1;durP2;ratioP2;P2;SDS_P1;SDS_P2;PMS_P1;PMS_P2;Temp;Humidity;BMP_temperature;BMP_pressure;BME280_temperature;BME280_humidity;BME280_pressure;Samples;Min_cycle;Max_cycle;Signal;HPM_P1;HPM_P2
2022/02/13 00:01:18;;;;;;;2.20;1.15;;;17.70;56.60;;;;;;10415416;28;20390;-54
2022/02/13 00:06:19;;;;;;;2.88;1.40;;;17.70;56.50;;;;;;10415149;28;20469;-55
2022/02/13 00:11:20;;;;;;;2.75;1.10;;;17.70;56.50;;;;;;10414887;28;20029;-55
2022/02/13 00:16:20;;;;;;;2.70;1.25;;;17.70;56.50;;;;;;10414754;28;20094;-56
2022/02/13 00:21:21;;;;;;;2.08;1.02;;;17.70;56.40;;;;;;10414663;28;20464;-54
2022/02/13 00:26:22;;;;;;;3.45;1.40;;;17.70;56.40;;;;;;10414117;28;20440;-54
2022/02/13 00:31:22;;;;;;;2.03;1.00;;;17.70;56.40;;;;;;10413812;28;20053;-55
2022/02/13 00:36:23;;;;;;;3.83;1.38;;;17.70;56.30;;;;;;10449854;28;20041;-55
2022/02/13 00:41:24;;;;;;;2.05;1.00;;;17.70;56.30;;;;;;10433713;28;20033;-56
2022/02/13 00:46:24;;;;;;;3.22;1.20;;;17.70;56.20;;;;;;10412773;28;20155;-56
2022/02/13 00:51:26;;;;;;;2.20;1.30;;;17.70;56.30;;;;;;10414788;28;20037;-55
2022/02/13 00:56:26;;;;;;;1.77;1.20;;;17.70;56.30;;;;;;10413042;28;20432;-56
2022/02/13 01:01:27;;;;;;;2.15;1.23;;;17.70;56.30;;;;;;10412756;28;20037;-56
2022/02/13 01:06:28;;;;;;;2.17;1.20;;;17.70;56.20;;;;;;10429410;28;20525;-55
2022/02/13 01:11:28;;;;;;;2.22;1.23;;;17.70;56.20;;;;;;10413882;28;20036;-55
2022/02/13 01:16:29;;;;;;;2.88;1.23;;;17.70;56.20;;;;;;10413654;28;20501;-53
2022/02/13 01:21:30;;;;;;;1.95;1.20;;;17.70;56.20;;;;;;10413435;28;20029;-55
2022/02/13 01:26:31;;;;;;;3.53;1.38;;;17.70;56.20;;;;;;10412460;28;20031;-54
2022/02/13 01:31:34;;;;;;;1.73;1.10;;;17.70;56.20;;;;;;10412122;28;20057;-55
2022/02/13 01:36:34;;;;;;;1.95;1.17;;;17.70;56.20;;;;;;10451012;28;20017;-55
2022/02/13 01:41:35;;;;;;;1.95;1.00;;;17.70;56.20;;;;;;10432800;28;20116;-56
2022/02/13 01:46:37;;;;;;;2.30;1.00;;;17.70;56.20;;;;;;10412949;28;20029;-56
2022/02/13 01:51:38;;;;;;;1.80;1.27;;;17.70;56.20;;;;;;10413241;28;20037;-55
2022/02/13 01:56:39;;;;;;;2.90;1.45;;;17.70;56.10;;;;;;10414553;28;20462;-55
2022/02/13 02:01:41;;;;;;;1.98;1.20;;;17.70;56.10;;;;;;10419654;28;20495;-54
2022/02/13 02:06:42;;;;;;;3.03;1.50;;;17.70;56.00;;;;;;10436492;28;20029;-54
2022/02/13 02:11:43;;;;;;;3.05;1.65;;;17.70;56.00;;;;;;10435864;28;20061;-55
2022/02/13 02:16:44;;;;;;;2.92;1.42;;;17.70;56.10;;;;;;10436070;28;20502;-56
2022/02/13 02:21:45;;;;;;;2.35;1.38;;;17.70;56.00;;;;;;10435706;28;20025;-56
2022/02/13 02:26:46;;;;;;;2.22;1.17;;;17.70;56.00;;;;;;10420171;28;20025;-55
2022/02/13 02:31:47;;;;;;;2.13;1.13;;;17.80;56.10;;;;;;10435055;28;20056;-55
2022/02/13 02:36:48;;;;;;;2.70;1.30;;;17.70;55.80;;;;;;10460003;28;20030;-55
2022/02/13 02:41:49;;;;;;;2.10;0.80;;;17.80;55.80;;;;;;10419537;28;20063;-56
2022/02/13 02:46:49;;;;;;;2.45;1.23;;;17.90;55.60;;;;;;10419103;28;20025;-55
2022/02/13 02:51:50;;;;;;;2.03;1.35;;;17.80;55.60;;;;;;10419380;28;20083;-55
2022/02/13 02:56:51;;;;;;;2.60;1.52;;;17.80;55.60;;;;;;10419296;28;20474;-55
2022/02/13 03:01:52;;;;;;;2.53;1.40;;;17.80;55.80;;;;;;10417610;28;20071;-55
2022/02/13 03:06:52;;;;;;;1.95;1.17;;;17.70;55.80;;;;;;10418037;28;20433;-55
2022/02/13 03:11:53;;;;;;;1.58;0.95;;;17.70;55.80;;;;;;10417120;28;20705;-54
2022/02/13 03:16:54;;;;;;;2.55;1.10;;;17.60;55.70;;;;;;10418045;28;20117;-55
2022/02/13 03:21:54;;;;;;;2.85;1.58;;;17.70;55.80;;;;;;10418267;28;20028;-55
2022/02/13 03:26:55;;;;;;;2.63;1.33;;;17.70;55.80;;;;;;10433461;28;20550;-54
2022/02/13 03:31:56;;;;;;;2.80;1.38;;;17.70;55.80;;;;;;10401460;28;20049;-56
2022/02/13 03:36:57;;;;;;;3.38;1.23;;;17.80;55.70;;;;;;10457943;28;20029;-55
2022/02/13 03:41:57;;;;;;;2.55;1.30;;;17.80;55.50;;;;;;10432716;28;20113;-54
2022/02/13 03:46:58;;;;;;;3.42;1.20;;;17.80;55.40;;;;;;10415581;28;20243;-55
2022/02/13 03:51:59;;;;;;;3.05;1.02;;;17.80;55.40;;;;;;10415636;28;20467;-54
2022/02/13 03:56:59;;;;;;;3.25;1.00;;;17.70;55.60;;;;;;10413667;28;20500;-55
2022/02/13 04:02:00;;;;;;;3.47;1.35;;;17.70;55.70;;;;;;10431350;28;20108;-55
2022/02/13 04:07:01;;;;;;;2.08;1.17;;;17.60;55.70;;;;;;10431671;28;20034;-56
2022/02/13 04:12:02;;;;;;;1.52;1.00;;;17.70;55.80;;;;;;10430637;28;20519;-55
2022/02/13 04:17:03;;;;;;;2.08;1.27;;;17.70;55.70;;;;;;10415981;28;20029;-55
2022/02/13 04:22:04;;;;;;;1.85;0.90;;;17.60;55.70;;;;;;10429220;28;20355;-55
2022/02/13 04:27:05;;;;;;;3.17;1.38;;;17.60;55.60;;;;;;10415443;28;20112;-56
2022/02/13 04:32:06;;;;;;;1.80;1.15;;;17.60;55.60;;;;;;10415194;28;20053;-55
2022/02/13 04:37:07;;;;;;;2.30;1.13;;;17.70;55.60;;;;;;10430538;28;20034;-53
2022/02/13 04:42:08;;;;;;;1.95;0.95;;;17.60;55.50;;;;;;10414940;28;20022;-56
2022/02/13 04:47:09;;;;;;;2.35;1.10;;;17.70;55.50;;;;;;10413580;28;20039;-55
2022/02/13 04:52:10;;;;;;;1.65;0.82;;;17.60;55.50;;;;;;10414922;28;20099;-55
2022/02/13 04:57:11;;;;;;;2.25;1.00;;;17.60;55.40;;;;;;10412935;28;20532;-55
2022/02/13 05:02:11;;;;;;;1.73;0.98;;;17.60;55.50;;;;;;10412714;28;20052;-56
2022/02/13 05:07:12;;;;;;;1.73;1.08;;;17.60;55.30;;;;;;10428650;28;20022;-55
2022/02/13 05:12:13;;;;;;;1.67;0.85;;;17.60;55.40;;;;;;10428030;28;20135;-55
2022/02/13 05:17:14;;;;;;;1.67;0.80;;;17.70;55.40;;;;;;10418240;28;20067;-55
2022/02/13 05:22:16;;;;;;;1.73;0.98;;;17.60;55.40;;;;;;10417377;28;20060;-55
2022/02/13 05:27:17;;;;;;;1.83;0.93;;;17.60;55.40;;;;;;10410963;28;20524;-55
2022/02/13 05:32:18;;;;;;;1.42;0.90;;;17.60;55.30;;;;;;10413218;28;20045;-55
2022/02/13 05:37:19;;;;;;;1.55;1.15;;;17.70;55.30;;;;;;10412166;28;20474;-55
2022/02/13 05:42:23;;;;;;;1.55;0.93;;;17.70;55.30;;;;;;10412578;28;20156;-55
2022/02/13 05:47:24;;;;;;;1.58;1.00;;;17.70;55.30;;;;;;10410925;28;20431;-56
2022/02/13 05:52:24;;;;;;;2.65;1.15;;;17.70;55.20;;;;;;10410144;28;20038;-54
2022/02/13 05:57:25;;;;;;;1.80;0.90;;;17.60;55.10;;;;;;10411273;28;20067;-55
2022/02/13 06:02:26;;;;;;;3.38;1.30;;;17.70;55.10;;;;;;10411992;28;20033;-53
2022/02/13 06:07:26;;;;;;;1.60;0.80;;;17.70;55.40;;;;;;10414950;28;20573;-54
2022/02/13 06:12:27;;;;;;;3.40;1.25;;;17.80;55.50;;;;;;10409393;28;20116;-54
2022/02/13 06:17:28;;;;;;;3.78;1.10;;;17.70;56.30;;;;;;10409663;28;20121;-55
2022/02/13 06:22:29;;;;;;;2.55;1.20;;;17.80;56.00;;;;;;10408532;28;20022;-56
2022/02/13 06:27:30;;;;;;;2.47;0.77;;;17.70;56.40;;;;;;10415659;28;20043;-56
2022/02/13 06:32:30;;;;;;;2.85;1.30;;;17.80;57.00;;;;;;10422748;28;20051;-55
2022/02/13 06:37:31;;;;;;;1.67;1.00;;;17.80;57.40;;;;;;10449497;28;20086;-54
2022/02/13 06:42:32;;;;;;;5.43;1.20;;;17.70;57.30;;;;;;10396191;28;20128;-55
2022/02/13 06:47:33;;;;;;;5.20;1.50;;;17.80;57.10;;;;;;10417275;28;20117;-57
2022/02/13 06:52:34;;;;;;;3.47;1.23;;;17.80;57.90;;;;;;10418566;28;20095;-56
2022/02/13 06:57:43;;;;;;;6.93;1.42;;;17.80;56.90;;;;;;10418269;28;20112;-58
2022/02/13 07:02:45;;;;;;;4.18;1.45;;;17.80;57.20;;;;;;10416790;28;20083;-54
2022/02/13 07:07:46;;;;;;;9.00;1.65;;;17.70;57.30;;;;;;10419689;28;20100;-55
2022/02/13 07:12:46;;;;;;;6.63;1.92;;;17.70;57.10;;;;;;10398502;28;20113;-55
2022/02/13 07:17:47;;;;;;;6.95;1.58;;;17.80;56.90;;;;;;10388103;28;20041;-53
2022/02/13 07:22:48;;;;;;;9.23;2.47;;;17.70;56.90;;;;;;10416399;28;20120;-54
2022/02/13 07:27:48;;;;;;;6.57;1.60;;;17.70;56.60;;;;;;10406330;28;20037;-55
2022/02/13 07:32:49;;;;;;;11.18;2.30;;;17.70;56.60;;;;;;10406252;28;20053;-55
2022/02/13 07:37:50;;;;;;;7.93;2.03;;;17.70;56.60;;;;;;10410689;28;20071;-54
2022/02/13 07:42:52;;;;;;;11.82;2.28;;;17.80;56.60;;;;;;10414086;28;20124;-54
2022/02/13 07:47:52;;;;;;;9.38;2.33;;;17.70;56.80;;;;;;10413995;28;20021;-55
2022/02/13 07:52:53;;;;;;;6.45;1.63;;;17.60;57.10;;;;;;10424506;28;20112;-54
2022/02/13 07:57:54;;;;;;;5.85;1.75;;;17.60;57.50;;;;;;10412780;28;20033;-55
2022/02/13 08:02:55;;;;;;;10.82;2.35;;;17.50;57.90;;;;;;10395222;28;20084;-55
2022/02/13 08:07:55;;;;;;;6.53;1.85;;;17.50;58.20;;;;;;10415363;28;20458;-54
2022/02/13 08:12:57;;;;;;;7.55;1.70;;;17.50;58.20;;;;;;10414182;28;20492;-55
2022/02/13 08:18:14;;;;;;;6.05;1.65;;;17.40;58.10;;;;;;10413877;28;20029;-53
2022/02/13 08:23:15;;;;;;;8.52;2.28;;;17.50;57.90;;;;;;10415284;28;20048;-55
2022/02/13 08:28:17;;;;;;;14.15;2.35;;;17.50;57.80;;;;;;10391117;28;20065;-55
2022/02/13 08:33:18;;;;;;;13.55;2.67;;;17.50;57.70;;;;;;10418830;28;20072;-53
2022/02/13 08:38:19;;;;;;;14.80;2.65;;;17.50;57.60;;;;;;10453975;28;20039;-53
2022/02/13 08:43:20;;;;;;;12.77;2.30;;;17.50;57.50;;;;;;10420208;28;20362;-54
2022/02/13 08:48:21;;;;;;;3.50;1.60;;;17.50;57.40;;;;;;10409921;28;20709;-54
2022/02/13 08:53:23;;;;;;;10.38;2.03;;;17.50;57.20;;;;;;10411443;28;20474;-53
2022/02/13 08:58:24;;;;;;;11.32;2.47;;;17.50;57.00;;;;;;10410424;28;20044;-53
2022/02/13 09:03:27;;;;;;;10.15;2.63;;;17.50;57.00;;;;;;10427354;28;20029;-53
2022/02/13 09:08:28;;;;;;;7.18;2.20;;;17.50;56.80;;;;;;10424999;28;20188;-52
2022/02/13 09:13:29;;;;;;;10.10;2.55;;;17.50;56.80;;;;;;10396542;28;20099;-54
2022/02/13 09:18:29;;;;;;;9.35;2.63;;;17.50;56.90;;;;;;10410989;28;20068;-53
2022/02/13 09:23:30;;;;;;;5.53;2.47;;;17.50;56.70;;;;;;10412790;28;20120;-54
2022/02/13 09:28:31;;;;;;;7.45;1.80;;;17.50;56.80;;;;;;10412523;28;20036;-54
2022/02/13 09:33:31;;;;;;;8.05;2.65;;;17.50;57.80;;;;;;10424371;28;20049;-55
2022/02/13 09:38:32;;;;;;;11.63;2.28;;;17.60;58.50;;;;;;10453556;28;20515;-54
2022/02/13 09:43:33;;;;;;;4.43;1.92;;;17.60;59.10;;;;;;10426192;28;20037;-54
2022/02/13 09:48:37;;;;;;;11.32;2.58;;;17.50;59.10;;;;;;10428266;28;20040;-50
2022/02/13 09:53:38;;;;;;;8.68;2.00;;;17.50;59.70;;;;;;10427780;28;20026;-56
2022/02/13 09:58:39;;;;;;;13.60;2.70;;;17.40;59.70;;;;;;10410986;28;20049;-58
2022/02/13 10:03:46;;;;;;;8.40;2.75;;;17.40;59.50;;;;;;10411306;28;20044;-57
2022/02/13 10:08:52;;;;;;;8.80;2.40;;;17.40;59.30;;;;;;10427809;28;20517;-53
2022/02/13 10:14:12;;;;;;;17.30;3.05;;;17.40;59.20;;;;;;10411121;28;20048;-56
2022/02/13 10:19:15;;;;;;;8.83;2.60;;;17.50;60.30;;;;;;10430127;28;20029;-51
2022/02/13 10:24:30;;;;;;;10.15;2.63;;;17.50;60.10;;;;;;10420344;28;20033;-54
2022/02/13 10:29:35;;;;;;;15.77;3.20;;;17.40;60.50;;;;;;10419626;28;20044;-52
2022/02/13 10:34:35;;;;;;;13.70;3.13;;;17.40;59.80;;;;;;10420232;28;20032;-55
2022/02/13 10:39:48;;;;;;;11.82;2.90;;;17.40;60.50;;;;;;10422430;28;20108;-55
2022/02/13 10:44:48;;;;;;;11.43;3.53;;;17.40;60.10;;;;;;10419464;28;20070;-54
2022/02/13 10:49:51;;;;;;;16.70;3.70;;;17.40;60.80;;;;;;10434968;28;20064;-55
2022/02/13 10:54:52;;;;;;;19.30;3.83;;;17.40;62.80;;;;;;10426630;28;20037;-54
2022/02/13 10:59:53;;;;;;;12.98;3.60;;;17.40;60.90;;;;;;10417001;28;20076;-50
2022/02/13 11:04:54;;;;;;;21.08;4.65;;;17.50;61.10;;;;;;10403341;28;20342;-58
2022/02/13 11:09:56;;;;;;;22.45;4.55;;;17.50;61.50;;;;;;10412186;28;20064;-55
2022/02/13 11:15:18;;;;;;;12.38;3.28;;;17.50;62.00;;;;;;10411810;28;20060;-55
2022/02/13 11:20:19;;;;;;;19.85;3.20;;;17.50;62.80;;;;;;10408504;28;20077;-54
2022/02/13 11:26:09;;;;;;;22.30;4.35;;;17.50;62.00;;;;;;10415162;28;20084;-54
2022/02/13 11:31:29;;;;;;;17.60;3.27;;;17.50;62.20;;;;;;10411336;28;20111;-55
2022/02/13 11:37:09;;;;;;;21.77;3.88;;;17.50;62.00;;;;;;10418837;28;20057;-54
2022/02/13 11:42:20;;;;;;;10.85;3.10;;;17.50;63.30;;;;;;10396048;28;20092;-54
2022/02/13 11:47:35;;;;;;;11.75;3.38;;;17.50;63.70;;;;;;10414328;28;20037;-54
2022/02/13 11:52:39;;;;;;;16.20;4.05;;;17.60;63.90;;;;;;10414533;28;20077;-55
2022/02/13 11:57:53;;;;;;;14.82;3.53;;;17.50;62.00;;;;;;10397205;28;20034;-56
2022/02/13 12:02:56;;;;;;;16.15;3.95;;;17.50;62.60;;;;;;10413629;28;20045;-52
2022/02/13 12:08:00;;;;;;;23.48;3.55;;;17.50;63.10;;;;;;10411906;28;20033;-54
2022/02/13 12:13:16;;;;;;;13.43;3.50;;;17.50;63.00;;;;;;10411511;28;20371;-53
2022/02/13 12:18:16;;;;;;;19.83;3.40;;;17.50;63.20;;;;;;10373423;28;20034;-53
2022/02/13 12:23:18;;;;;;;14.57;2.72;;;17.50;62.90;;;;;;10413742;28;20037;-56
2022/02/13 12:28:19;;;;;;;16.42;3.42;;;17.40;63.50;;;;;;10413799;28;20048;-53
2022/02/13 12:33:27;;;;;;;16.55;2.53;;;17.40;64.10;;;;;;10430075;28;20524;-54
2022/02/13 12:38:31;;;;;;;11.77;2.80;;;17.50;63.40;;;;;;10411695;28;20037;-55
2022/02/13 12:43:32;;;;;;;11.00;2.63;;;17.40;63.00;;;;;;10428275;28;20087;-56
2022/02/13 12:48:37;;;;;;;12.10;2.60;;;17.40;62.90;;;;;;10412470;28;20060;-56
2022/02/13 12:53:41;;;;;;;11.27;2.28;;;17.40;63.20;;;;;;10407808;28;20030;-54
2022/02/13 12:58:41;;;;;;;14.00;2.80;;;17.30;63.20;;;;;;10422932;28;20284;-54
2022/02/13 13:03:42;;;;;;;10.15;2.58;;;17.30;63.10;;;;;;10424746;28;20090;-53
2022/02/13 13:08:46;;;;;;;7.05;2.60;;;17.30;63.30;;;;;;10384563;28;20063;-56
2022/02/13 13:13:47;;;;;;;11.35;2.25;;;17.20;63.10;;;;;;10386612;28;20026;-56
2022/02/13 13:18:56;;;;;;;10.40;2.67;;;17.20;63.10;;;;;;10411621;28;20112;-57
2022/02/13 13:24:01;;;;;;;11.27;2.23;;;17.20;63.10;;;;;;10416235;28;20033;-56
2022/02/13 13:29:30;;;;;;;5.13;1.85;;;17.20;62.90;;;;;;10417468;28;20393;-57
2022/02/13 13:34:54;;;;;;;9.40;2.50;;;17.20;63.00;;;;;;10408841;28;20087;-56
2022/02/13 13:40:09;;;;;;;5.05;1.45;;;17.20;62.70;;;;;;10412429;28;20053;-58
2022/02/13 13:45:19;;;;;;;5.32;1.95;;;17.20;63.30;;;;;;10394420;28;20104;-58
2022/02/13 13:50:24;;;;;;;10.90;2.33;;;17.20;62.90;;;;;;10410467;28;20036;-58
2022/02/13 13:55:24;;;;;;;9.25;2.10;;;17.40;62.50;;;;;;10418428;28;20128;-60
2022/02/13 14:00:25;;;;;;;9.73;2.58;;;17.30;62.40;;;;;;10427806;28;20477;-58
2022/02/13 14:05:29;;;;;;;9.52;2.80;;;17.20;62.60;;;;;;10410478;28;20087;-58
2022/02/13 14:10:31;;;;;;;8.73;2.83;;;17.10;62.50;;;;;;10419400;28;20040;-58
2022/02/13 14:15:32;;;;;;;6.80;2.35;;;17.00;62.60;;;;;;10409666;28;20067;-58
2022/02/13 14:20:33;;;;;;;17.08;3.33;;;17.00;62.80;;;;;;10393262;28;20031;-58
2022/02/13 14:25:36;;;;;;;7.85;2.92;;;17.00;63.10;;;;;;10413405;28;20030;-58
2022/02/13 14:30:37;;;;;;;11.80;2.30;;;17.00;63.60;;;;;;10417319;28;20049;-57
2022/02/13 14:35:38;;;;;;;21.42;3.08;;;17.00;63.80;;;;;;10402684;28;20029;-58
2022/02/13 14:40:39;;;;;;;16.38;3.58;;;17.00;64.00;;;;;;10391169;28;20030;-58
2022/02/13 14:45:40;;;;;;;14.85;3.05;;;17.00;64.50;;;;;;10418805;28;20366;-56
2022/02/13 14:50:44;;;;;;;26.15;4.03;;;17.00;64.60;;;;;;10418008;28;20108;-58
2022/02/13 14:55:45;;;;;;;10.60;2.78;;;17.10;64.80;;;;;;10401273;28;20025;-59
2022/02/13 15:00:46;;;;;;;28.40;4.47;;;17.10;64.10;;;;;;10414466;28;20478;-58
2022/02/13 15:05:47;;;;;;;18.65;3.47;;;17.10;64.10;;;;;;10408682;28;20100;-58
2022/02/13 15:10:49;;;;;;;19.10;4.00;;;17.10;64.00;;;;;;10389360;28;20037;-58
2022/02/13 15:15:49;;;;;;;14.55;3.67;;;17.10;64.00;;;;;;10391741;28;20032;-57
2022/02/13 15:20:53;;;;;;;13.80;3.22;;;17.00;63.30;;;;;;10375062;28;20029;-57
2022/02/13 15:25:54;;;;;;;12.70;3.75;;;17.10;63.00;;;;;;10392677;28;20029;-57
2022/02/13 15:30:56;;;;;;;14.80;3.35;;;17.00;62.50;;;;;;10413304;28;20466;-57
2022/02/13 15:35:56;;;;;;;13.48;3.65;;;17.10;67.40;;;;;;10421859;28;20033;-57
2022/02/13 15:40:57;;;;;;;12.30;3.47;;;17.10;65.10;;;;;;10428550;28;20030;-57
2022/02/13 15:45:58;;;;;;;14.75;3.45;;;17.10;63.40;;;;;;10397450;28;20029;-57
2022/02/13 15:50:59;;;;;;;10.80;3.33;;;17.20;62.90;;;;;;10394664;28;20059;-56
2022/02/13 15:55:59;;;;;;;9.13;3.53;;;17.20;63.00;;;;;;10403847;28;20354;-56
2022/02/13 16:01:00;;;;;;;8.50;2.80;;;17.30;63.00;;;;;;10412601;28;20461;-57
2022/02/13 16:06:01;;;;;;;13.02;3.97;;;17.30;63.10;;;;;;10373188;28;20120;-57
2022/02/13 16:11:01;;;;;;;10.80;4.07;;;17.30;62.70;;;;;;10397614;28;20070;-55
2022/02/13 16:16:02;;;;;;;12.15;3.78;;;17.30;62.60;;;;;;10404047;28;20069;-57
2022/02/13 16:21:03;;;;;;;9.40;3.22;;;17.20;61.50;;;;;;10407107;28;20037;-57
2022/02/13 16:26:04;;;;;;;10.65;3.90;;;17.30;61.90;;;;;;10415023;28;20377;-57
2022/02/13 16:31:05;;;;;;;8.90;3.20;;;17.30;61.60;;;;;;10430678;28;20559;-57
2022/02/13 16:36:05;;;;;;;11.07;4.43;;;17.40;61.60;;;;;;10419612;28;20040;-57
2022/02/13 16:41:07;;;;;;;8.50;3.97;;;17.30;61.20;;;;;;10392598;28;20354;-57
2022/02/13 16:46:08;;;;;;;11.40;4.55;;;17.30;60.70;;;;;;10411584;28;20052;-57
2022/02/13 16:51:09;;;;;;;11.18;3.92;;;17.30;60.60;;;;;;10413442;28;20032;-57
2022/02/13 16:56:11;;;;;;;11.57;3.75;;;17.40;60.80;;;;;;10414215;28;20512;-57
2022/02/13 17:01:12;;;;;;;12.30;3.50;;;17.40;61.20;;;;;;10429940;28;20466;-59
2022/02/13 17:06:12;;;;;;;10.77;3.90;;;17.50;61.60;;;;;;10389517;28;20069;-57
2022/02/13 17:11:14;;;;;;;9.40;3.45;;;17.50;62.00;;;;;;10372241;28;20030;-60
2022/02/13 17:16:18;;;;;;;8.45;3.78;;;17.50;61.50;;;;;;10411794;28;20053;-56
2022/02/13 17:21:18;;;;;;;11.93;5.20;;;17.60;60.80;;;;;;10429023;28;20026;-57
2022/02/13 17:26:21;;;;;;;17.65;5.25;;;17.70;63.50;;;;;;10411498;28;20417;-57
2022/02/13 17:31:21;;;;;;;10.40;4.43;;;17.90;64.00;;;;;;10428363;28;20053;-57
2022/02/13 17:36:24;;;;;;;16.35;5.00;;;18.00;64.50;;;;;;10430336;28;20488;-57
2022/02/13 17:41:25;;;;;;;6.85;3.90;;;18.00;63.90;;;;;;10412110;28;20021;-56
2022/02/13 17:46:28;;;;;;;12.32;3.85;;;18.00;63.60;;;;;;10395308;28;20603;-57
2022/02/13 17:51:28;;;;;;;10.05;3.50;;;17.90;63.80;;;;;;10412179;28;20022;-58
2022/02/13 17:56:29;;;;;;;8.75;3.95;;;17.80;64.00;;;;;;10411451;28;20454;-59
2022/02/13 18:01:30;;;;;;;11.52;3.22;;;17.80;63.70;;;;;;10410530;28;20033;-58
2022/02/13 18:06:30;;;;;;;7.47;3.17;;;17.70;63.60;;;;;;10409855;28;20059;-58
2022/02/13 18:11:31;;;;;;;9.18;3.53;;;17.70;64.40;;;;;;10394083;28;20036;-59
2022/02/13 18:16:32;;;;;;;6.10;3.55;;;17.60;63.60;;;;;;10410468;28;20026;-59
2022/02/13 18:21:32;;;;;;;7.35;3.38;;;17.50;63.50;;;;;;10411041;28;20108;-61
2022/02/13 18:26:33;;;;;;;10.48;3.40;;;17.40;63.40;;;;;;10393664;28;20091;-60
2022/02/13 18:31:34;;;;;;;6.20;3.33;;;17.40;63.00;;;;;;10412024;28;20133;-59
2022/02/13 18:36:35;;;;;;;8.63;3.70;;;17.40;63.30;;;;;;10409487;28;20439;-59
2022/02/13 18:41:36;;;;;;;6.22;3.35;;;17.40;63.30;;;;;;10398084;28;20048;-59
2022/02/13 18:46:38;;;;;;;6.82;3.33;;;17.50;63.10;;;;;;10414283;28;20382;-59
2022/02/13 18:51:39;;;;;;;9.55;3.53;;;17.40;62.90;;;;;;10424463;28;20390;-59
2022/02/13 18:56:40;;;;;;;7.38;2.95;;;17.40;62.90;;;;;;10415692;28;20125;-59
2022/02/13 19:01:41;;;;;;;5.72;2.85;;;17.50;62.90;;;;;;10414206;28;20025;-59
2022/02/13 19:06:41;;;;;;;6.68;3.72;;;17.50;62.90;;;;;;10404769;28;20052;-59
2022/02/13 19:11:44;;;;;;;5.95;2.67;;;17.50;62.80;;;;;;10398145;28;20109;-59
2022/02/13 19:16:44;;;;;;;6.65;2.95;;;17.50;62.80;;;;;;10417030;28;20466;-59
2022/02/13 19:21:45;;;;;;;7.20;2.50;;;17.50;62.80;;;;;;10418435;28;20147;-60
2022/02/13 19:32:05;;;;;;;7.33;2.73;;;17.40;62.80;;;;;;10414635;28;20081;-59
2022/02/13 19:37:07;;;;;;;5.10;2.38;;;17.40;63.00;;;;;;10400333;28;20035;-59
2022/02/13 19:42:07;;;;;;;4.47;2.78;;;17.40;62.80;;;;;;10399353;28;20075;-60
2022/02/13 19:47:08;;;;;;;9.40;2.75;;;17.50;62.80;;;;;;10415786;28;20087;-59
2022/02/13 19:52:09;;;;;;;4.65;2.28;;;17.40;62.80;;;;;;10415457;28;20032;-60
2022/02/13 19:57:10;;;;;;;4.70;2.38;;;17.40;62.80;;;;;;10415612;28;20040;-59
2022/02/13 20:02:11;;;;;;;5.53;3.08;;;17.40;62.80;;;;;;10407031;28;20017;-59
2022/02/13 20:07:12;;;;;;;6.55;2.83;;;17.50;63.00;;;;;;10430301;28;20036;-60
2022/02/13 20:12:13;;;;;;;4.47;2.45;;;17.40;63.10;;;;;;10403544;28;20440;-58
2022/02/13 20:17:14;;;;;;;5.00;2.70;;;17.50;63.40;;;;;;10409324;28;20083;-58
2022/02/13 20:22:16;;;;;;;5.60;2.60;;;17.40;63.30;;;;;;10402245;28;20021;-58
2022/02/13 20:27:17;;;;;;;5.22;2.47;;;17.40;63.30;;;;;;10419492;28;20119;-58
2022/02/13 20:32:19;;;;;;;4.00;2.53;;;17.40;63.30;;;;;;10407734;28;20127;-58
2022/02/13 20:37:21;;;;;;;4.35;2.40;;;17.30;63.30;;;;;;10386804;28;20033;-58
2022/02/13 20:42:22;;;;;;;4.38;2.72;;;17.40;63.20;;;;;;10385237;28;20026;-56
2022/02/13 20:47:22;;;;;;;4.47;2.28;;;17.40;62.90;;;;;;10395806;28;20077;-58
2022/02/13 20:52:23;;;;;;;4.78;2.20;;;17.40;62.80;;;;;;10413324;28;20113;-58
2022/02/13 20:57:25;;;;;;;4.60;2.72;;;17.50;62.80;;;;;;10414370;28;20112;-58
2022/02/13 21:02:26;;;;;;;5.45;2.20;;;17.40;62.50;;;;;;10428488;28;20021;-59
2022/02/13 21:07:27;;;;;;;3.85;2.50;;;17.40;62.40;;;;;;10411903;28;20041;-58
2022/02/13 21:12:28;;;;;;;6.00;2.25;;;17.50;62.30;;;;;;10427420;28;20029;-58
2022/02/13 21:17:30;;;;;;;4.75;2.15;;;17.50;62.20;;;;;;10410963;28;20037;-58
2022/02/13 21:22:33;;;;;;;4.93;2.05;;;17.50;62.00;;;;;;10396037;28;20025;-59
2022/02/13 21:27:35;;;;;;;3.30;2.15;;;17.50;61.90;;;;;;10428528;28;20028;-58
2022/02/13 21:32:37;;;;;;;3.83;2.78;;;17.50;61.90;;;;;;10412711;28;20470;-58
2022/02/13 21:37:37;;;;;;;3.67;2.40;;;17.50;61.70;;;;;;10395800;28;20121;-58
2022/02/13 21:42:38;;;;;;;5.13;2.38;;;17.50;61.70;;;;;;10411960;28;20025;-58
2022/02/13 21:47:40;;;;;;;3.50;2.38;;;17.50;61.60;;;;;;10428563;28;20111;-58
2022/02/13 21:52:41;;;;;;;4.38;2.35;;;17.50;61.50;;;;;;10411784;28;20127;-58
2022/02/13 21:57:44;;;;;;;3.47;2.17;;;17.50;61.40;;;;;;10412778;28;20040;-58
2022/02/13 22:02:46;;;;;;;4.25;1.98;;;17.50;61.40;;;;;;10411535;28;20021;-58
2022/02/13 22:07:47;;;;;;;3.08;1.90;;;17.50;61.20;;;;;;10411486;28;20041;-58
2022/02/13 22:12:48;;;;;;;4.18;2.40;;;17.60;61.20;;;;;;10429252;28;20037;-58
2022/02/13 22:17:49;;;;;;;2.30;2.00;;;17.50;61.10;;;;;;10419503;28;20418;-57
2022/02/13 22:22:50;;;;;;;4.47;2.45;;;17.50;61.10;;;;;;10419135;28;20462;-58
2022/02/13 22:27:51;;;;;;;3.40;2.08;;;17.50;61.10;;;;;;10419134;28;20498;-58
2022/02/13 22:32:52;;;;;;;3.83;2.42;;;17.50;61.10;;;;;;10427145;28;20051;-59
2022/02/13 22:37:54;;;;;;;4.13;2.20;;;17.50;60.90;;;;;;10443301;28;20520;-58
2022/02/13 22:42:55;;;;;;;3.33;2.03;;;17.50;61.00;;;;;;10445563;28;20388;-58
2022/02/13 22:47:56;;;;;;;4.20;2.17;;;17.50;61.00;;;;;;10435259;28;20029;-58
2022/02/13 22:52:57;;;;;;;2.40;1.95;;;17.50;60.90;;;;;;10401414;28;20110;-58
2022/02/13 22:57:58;;;;;;;2.72;1.70;;;17.50;60.80;;;;;;10434491;28;20116;-58
2022/02/13 23:02:59;;;;;;;3.95;2.00;;;17.50;60.70;;;;;;10419085;28;20021;-58
2022/02/13 23:13:20;;;;;;;2.45;1.65;;;17.50;60.60;;;;;;10413689;28;20136;-58
2022/02/13 23:18:21;;;;;;;3.20;1.95;;;17.60;60.60;;;;;;10418632;28;20428;-58
2022/02/13 23:23:21;;;;;;;3.78;1.83;;;17.50;60.50;;;;;;10418408;28;20033;-59
2022/02/13 23:28:23;;;;;;;3.05;2.00;;;17.50;60.50;;;;;;10417451;28;20029;-59
2022/02/13 23:33:25;;;;;;;3.25;2.00;;;17.60;60.50;;;;;;10428140;28;20707;-58
2022/02/13 23:38:26;;;;;;;2.47;1.70;;;17.50;60.40;;;;;;10397050;28;20390;-58
2022/02/13 23:43:26;;;;;;;3.22;1.83;;;17.60;60.50;;;;;;10432929;28;20044;-58
2022/02/13 23:48:27;;;;;;;2.47;1.63;;;17.60;60.50;;;;;;10416016;28;20046;-58
2022/02/13 23:53:28;;;;;;;2.60;1.77;;;17.50;60.40;;;;;;10416990;28;20128;-58
2022/02/13 23:58:28;;;;;;;1.98;1.48;;;17.60;60.40;;;;;;10432413;28;20568;-57
